createdAt,value
2019-05-10T00:00:38.898Z,10.10
2019-05-10T00:03:26.641Z,8.27
2019-05-10T00:06:14.393Z,6.80
2019-05-10T00:08:45.871Z,7.53
2019-05-10T00:11:30.761Z,10.00
2019-05-10T00:14:15.955Z,8.97
2019-05-10T00:16:46.127Z,7.57
2019-05-10T00:19:15.675Z,7.67
2019-05-10T00:21:45.268Z,8.23
2019-05-10T00:24:14.826Z,5.93
2019-05-10T00:26:44.453Z,9.23
2019-05-10T00:29:13.992Z,5.23
2019-05-10T00:31:43.644Z,8.60
2019-05-10T00:34:13.150Z,5.47
2019-05-10T00:36:42.706Z,4.80
2019-05-10T00:39:12.350Z,7.43
2019-05-10T00:41:41.897Z,5.00
2019-05-10T00:44:12.108Z,4.23
2019-05-10T00:46:41.701Z,9.33
2019-05-10T00:49:11.287Z,8.63
2019-05-10T00:51:40.833Z,9.90
2019-05-10T00:54:10.558Z,8.10
2019-05-10T00:56:40.120Z,8.03
2019-05-10T00:59:09.670Z,7.07
2019-05-10T01:01:39.291Z,5.07
2019-05-10T01:04:08.930Z,7.23
2019-05-10T01:06:38.538Z,7.07
2019-05-10T01:09:08.497Z,7.10
2019-05-10T01:11:38.290Z,7.07
2019-05-10T01:14:07.898Z,6.80
2019-05-10T01:16:37.461Z,6.00
2019-05-10T01:19:07.009Z,5.97
2019-05-10T01:21:36.800Z,6.23
2019-05-10T01:24:06.371Z,6.57
2019-05-10T01:26:35.925Z,5.93
2019-05-10T01:29:05.570Z,7.20
2019-05-10T01:31:35.149Z,6.67
2019-05-10T01:34:04.686Z,4.17
2019-05-10T01:36:34.236Z,6.17
2019-05-10T01:39:05.207Z,4.73
2019-05-10T01:41:34.817Z,5.07
2019-05-10T01:44:05.673Z,5.90
2019-05-10T01:46:35.267Z,9.67
2019-05-10T01:49:04.822Z,7.30
2019-05-10T01:51:34.364Z,5.80
2019-05-10T01:54:03.924Z,6.20
2019-05-10T01:56:33.558Z,7.13
2019-05-10T01:59:03.122Z,5.93
2019-05-10T02:01:32.665Z,5.47
2019-05-10T02:04:02.227Z,5.90
2019-05-10T02:06:31.871Z,7.40
2019-05-10T02:09:01.479Z,7.27
2019-05-10T02:11:31.138Z,9.13
2019-05-10T02:14:00.665Z,7.87
2019-05-10T02:16:30.208Z,6.07
2019-05-10T02:18:59.775Z,8.03
2019-05-10T02:21:29.325Z,4.00
2019-05-10T02:23:59.187Z,6.33
2019-05-10T02:26:28.759Z,7.23
2019-05-10T02:28:58.284Z,7.03
2019-05-10T02:31:27.837Z,5.07
2019-05-10T02:33:57.469Z,9.53
2019-05-10T02:36:27.006Z,7.57
2019-05-10T02:38:56.551Z,6.07
2019-05-10T02:41:26.133Z,6.63
2019-05-10T02:43:55.677Z,6.47
2019-05-10T02:46:25.268Z,8.23
2019-05-10T02:48:55.176Z,8.57
2019-05-10T02:51:24.694Z,5.33
2019-05-10T02:53:54.512Z,6.97
2019-05-10T02:56:30.233Z,8.57
2019-05-10T02:58:57.618Z,9.50
2019-05-10T03:01:30.354Z,5.33
2019-05-10T03:04:02.619Z,5.53
2019-05-10T03:06:36.565Z,4.13
2019-05-10T03:09:08.413Z,8.40
2019-05-10T03:11:47.200Z,12.57
2019-05-10T03:14:19.510Z,5.50
2019-05-10T03:16:51.493Z,6.67
2019-05-10T03:19:22.751Z,8.83
2019-05-10T03:21:57.004Z,5.60
2019-05-10T03:24:27.940Z,8.60
2019-05-10T03:26:57.768Z,4.37
2019-05-10T03:29:27.669Z,4.83
2019-05-10T03:31:57.509Z,5.77
2019-05-10T03:34:27.123Z,5.67
2019-05-10T03:36:56.895Z,7.57
2019-05-10T03:39:26.610Z,5.43
2019-05-10T03:41:56.253Z,8.10
2019-05-10T03:44:25.816Z,7.40
2019-05-10T03:46:55.404Z,6.50
2019-05-10T03:49:24.946Z,8.60
2019-05-10T03:51:54.481Z,4.97
2019-05-10T03:54:24.021Z,7.20
2019-05-10T03:57:11.122Z,7.97
2019-05-10T03:59:24.878Z,5.53
2019-05-10T04:01:54.422Z,8.50
2019-05-10T04:04:24.957Z,7.57
2019-05-10T04:06:54.524Z,11.50
2019-05-10T04:09:24.153Z,11.77
2019-05-10T04:11:53.684Z,7.17
2019-05-10T04:14:23.578Z,6.87
2019-05-10T04:16:53.117Z,6.57
2019-05-10T04:19:22.686Z,7.57
2019-05-10T04:21:53.145Z,12.00
2019-05-10T04:24:22.688Z,7.57
2019-05-10T04:26:52.235Z,5.63
2019-05-10T04:29:22.044Z,4.40
2019-05-10T04:31:51.592Z,7.90
2019-05-10T04:34:21.171Z,8.90
2019-05-10T04:36:50.717Z,5.43
2019-05-10T04:39:20.262Z,6.93
2019-05-10T04:41:49.807Z,5.87
2019-05-10T04:44:19.354Z,9.50
2019-05-10T04:46:48.904Z,6.70
2019-05-10T04:49:18.465Z,5.40
2019-05-10T04:51:48.049Z,4.83
2019-05-10T04:54:17.582Z,7.77
2019-05-10T04:56:47.155Z,8.37
2019-05-10T04:59:16.696Z,8.13
2019-05-10T05:01:46.245Z,5.67
2019-05-10T05:04:16.894Z,9.33
2019-05-10T05:06:46.446Z,5.57
2019-05-10T05:09:16.096Z,8.97
2019-05-10T05:11:45.806Z,5.93
2019-05-10T05:14:15.332Z,7.73
2019-05-10T05:16:44.890Z,7.03
2019-05-10T05:19:14.521Z,6.03
2019-05-10T05:21:44.150Z,9.57
2019-05-10T05:24:16.854Z,6.30
2019-05-10T05:26:44.977Z,7.33
2019-05-10T05:29:14.553Z,9.00
2019-05-10T05:31:44.119Z,9.80
2019-05-10T05:34:13.652Z,11.27
2019-05-10T05:36:43.318Z,9.73
2019-05-10T05:39:12.927Z,11.17
2019-05-10T05:41:49.093Z,10.93
2019-05-10T05:44:13.915Z,10.33
2019-05-10T05:46:44.516Z,13.73
2019-05-10T05:49:14.062Z,10.63
2019-05-10T05:51:43.629Z,12.80
2019-05-10T05:54:15.149Z,13.10
2019-05-10T05:56:50.439Z,13.87
2019-05-10T05:59:17.389Z,14.17
2019-05-10T06:01:47.172Z,13.97
2019-05-10T06:04:16.753Z,17.43
2019-05-10T06:06:46.287Z,15.37
2019-05-10T06:09:16.341Z,13.53
2019-05-10T06:11:45.889Z,15.00
2019-05-10T06:14:15.428Z,14.50
2019-05-10T06:16:50.872Z,15.53
2019-05-10T06:19:23.948Z,16.20
2019-05-10T06:21:47.867Z,15.23
2019-05-10T06:24:17.416Z,16.13
2019-05-10T06:26:46.978Z,17.83
2019-05-10T06:29:17.769Z,16.77
2019-05-10T06:31:47.823Z,15.13
2019-05-10T06:34:17.410Z,17.03
2019-05-10T06:36:47.024Z,17.93
2019-05-10T06:39:16.558Z,19.10
2019-05-10T06:41:50.037Z,16.93
2019-05-10T06:44:25.086Z,18.20
2019-05-10T06:46:51.041Z,17.80
2019-05-10T06:49:20.582Z,18.70
2019-05-10T06:51:51.002Z,19.23
2019-05-10T06:54:20.593Z,17.07
2019-05-10T06:56:50.152Z,18.90
2019-05-10T06:59:24.928Z,16.30
2019-05-10T07:01:52.159Z,19.70
2019-05-10T07:04:21.919Z,17.70
2019-05-10T07:06:51.634Z,17.33
2019-05-10T07:09:21.338Z,21.47
2019-05-10T07:11:50.882Z,18.37
2019-05-10T07:14:25.406Z,18.83
2019-05-10T07:16:56.402Z,18.60
2019-05-10T07:19:22.964Z,17.47
2019-05-10T07:21:52.606Z,18.90
2019-05-10T07:24:24.913Z,16.03
2019-05-10T07:26:56.481Z,18.03
2019-05-10T07:29:30.045Z,17.13
2019-05-10T07:31:56.507Z,20.43
2019-05-10T07:34:26.041Z,19.00
2019-05-10T07:36:55.602Z,17.63
2019-05-10T07:39:25.213Z,18.50
2019-05-10T07:41:59.959Z,17.47
2019-05-10T07:44:26.074Z,16.63
2019-05-10T07:46:58.512Z,16.00
2019-05-10T07:49:30.110Z,16.23
2019-05-10T07:52:02.229Z,16.20
2019-05-10T07:54:29.653Z,15.07
2019-05-10T07:56:59.232Z,16.03
2019-05-10T07:59:32.501Z,16.40
2019-05-10T08:02:06.149Z,14.90
2019-05-10T08:04:33.510Z,14.30
2019-05-10T08:07:02.753Z,15.17
2019-05-10T08:09:37.102Z,14.73
2019-05-10T08:12:05.220Z,14.50
2019-05-10T08:14:35.199Z,15.87
2019-05-10T08:17:06.281Z,14.20
2019-05-10T08:19:37.522Z,15.63
2019-05-10T08:22:09.236Z,13.20
2019-05-10T08:24:45.524Z,13.53
2019-05-10T08:27:14.002Z,13.70
2019-05-10T08:29:42.908Z,9.33
2019-05-10T08:32:14.129Z,8.87
2019-05-10T08:34:51.630Z,9.70
2019-05-10T08:37:19.291Z,7.70
2019-05-10T08:39:49.477Z,9.37
2019-05-10T08:42:34.367Z,8.23
2019-05-10T08:44:53.729Z,7.80
2019-05-10T08:47:25.028Z,8.37
2019-05-10T08:50:03.462Z,8.20
2019-05-10T08:52:27.333Z,8.97
2019-05-10T08:54:55.355Z,7.77
2019-05-10T08:57:25.041Z,8.10
2019-05-10T09:00:06.468Z,9.53
2019-05-10T09:02:29.116Z,8.10
2019-05-10T09:04:57.150Z,7.07
2019-05-10T09:07:29.363Z,8.60
2019-05-10T09:09:57.998Z,10.23
2019-05-10T09:12:29.563Z,6.50
2019-05-10T09:15:06.820Z,7.17
2019-05-10T09:17:32.338Z,7.57
2019-05-10T09:20:02.693Z,7.00
2019-05-10T09:22:38.435Z,7.80
2019-05-10T09:25:04.445Z,7.80
2019-05-10T09:27:33.975Z,7.63
2019-05-10T09:30:08.138Z,8.30
2019-05-10T09:32:34.796Z,5.50
2019-05-10T09:35:09.343Z,4.40
2019-05-10T09:37:36.702Z,6.47
2019-05-10T09:40:09.879Z,5.57
2019-05-10T09:42:43.374Z,6.37
2019-05-10T09:45:13.550Z,5.20
2019-05-10T09:47:43.715Z,5.10
2019-05-10T09:50:13.843Z,4.97
2019-05-10T09:52:43.488Z,4.97
2019-05-10T09:55:15.010Z,7.20
2019-05-10T09:57:45.065Z,5.77
2019-05-10T10:00:17.391Z,6.20
2019-05-10T10:02:55.396Z,5.90
2019-05-10T10:05:18.334Z,6.53
2019-05-10T10:07:48.181Z,4.23
2019-05-10T10:10:28.514Z,5.83
2019-05-10T10:12:49.497Z,6.83
2019-05-10T10:15:28.969Z,5.60
2019-05-10T10:17:50.400Z,4.77
2019-05-10T10:20:20.199Z,9.33
2019-05-10T10:22:54.396Z,3.63
2019-05-10T10:25:21.418Z,2.60
2019-05-10T10:27:50.962Z,4.47
2019-05-10T10:30:21.687Z,5.30
2019-05-10T10:32:51.302Z,4.83
2019-05-10T10:35:26.498Z,3.83
2019-05-10T10:37:52.183Z,4.87
2019-05-10T10:40:21.798Z,4.47
2019-05-10T10:42:51.358Z,3.17
2019-05-10T10:45:21.639Z,5.47
2019-05-10T10:47:51.173Z,8.20
2019-05-10T10:50:22.111Z,7.70
2019-05-10T10:52:51.725Z,3.43
2019-05-10T10:55:21.449Z,5.13
2019-05-10T10:57:51.025Z,10.40
2019-05-10T11:00:38.867Z,4.27
2019-05-10T11:03:07.286Z,5.57
2019-05-10T11:05:36.846Z,3.73
2019-05-10T11:08:06.409Z,2.53
2019-05-10T11:10:35.972Z,5.20
2019-05-10T11:13:13.233Z,4.13
2019-05-10T11:15:36.996Z,4.40
2019-05-10T11:18:06.638Z,4.47
2019-05-10T11:20:36.256Z,4.27
2019-05-10T11:23:05.771Z,4.03
2019-05-10T11:25:35.350Z,2.80
2019-05-10T11:28:04.899Z,6.53
2019-05-10T11:30:34.513Z,5.07
2019-05-10T11:33:04.085Z,3.33
2019-05-10T11:35:34.675Z,4.20
2019-05-10T11:38:06.610Z,5.93
2019-05-10T11:40:35.721Z,4.13
2019-05-10T11:43:05.328Z,4.13
2019-05-10T11:45:36.653Z,5.17
2019-05-10T11:48:06.612Z,4.57
2019-05-10T11:50:36.227Z,6.23
2019-05-10T11:53:12.498Z,3.57
2019-05-10T11:55:40.118Z,5.03
2019-05-10T11:58:12.868Z,3.37
2019-05-10T12:00:41.406Z,6.17
2019-05-10T12:03:18.137Z,3.77
2019-05-10T12:05:42.877Z,5.00
2019-05-10T12:08:13.160Z,8.37
2019-05-10T12:10:52.659Z,3.97
2019-05-10T12:13:19.416Z,4.57
2019-05-10T12:15:45.571Z,3.60
2019-05-10T12:18:15.234Z,3.63
2019-05-10T12:20:54.786Z,4.53
2019-05-10T12:23:22.630Z,5.17
2019-05-10T12:26:18.021Z,5.93
2019-05-10T12:28:24.450Z,5.57
2019-05-10T12:30:51.445Z,5.37
2019-05-10T12:33:25.098Z,5.67
2019-05-10T12:35:52.420Z,4.33
2019-05-10T12:38:23.475Z,4.20
2019-05-10T12:40:54.360Z,5.23
2019-05-10T12:43:23.935Z,4.20
2019-05-10T12:45:53.536Z,3.93
2019-05-10T12:48:23.610Z,5.00
2019-05-10T12:50:57.966Z,4.63
2019-05-10T12:53:24.671Z,5.07
2019-05-10T12:55:54.465Z,6.17
2019-05-10T12:58:24.061Z,6.37
2019-05-10T13:00:54.719Z,9.00
2019-05-10T13:03:31.566Z,6.77
2019-05-10T13:05:56.945Z,8.40
2019-05-10T13:08:26.520Z,6.10
2019-05-10T13:10:56.049Z,7.93
2019-05-10T13:13:29.881Z,6.13
2019-05-10T13:15:56.870Z,6.83
2019-05-10T13:18:49.151Z,7.60
2019-05-10T13:20:58.267Z,9.73
2019-05-10T13:23:29.154Z,7.90
2019-05-10T13:25:58.698Z,8.07
2019-05-10T13:28:28.250Z,8.97
2019-05-10T13:30:59.750Z,9.77
2019-05-10T13:33:29.635Z,8.07
2019-05-10T13:36:02.120Z,9.37
2019-05-10T13:38:36.939Z,11.53
2019-05-10T13:41:03.327Z,9.80
2019-05-10T13:43:32.980Z,8.93
2019-05-10T13:46:02.562Z,8.67
2019-05-10T13:48:37.179Z,8.23
2019-05-10T13:51:07.152Z,7.43
2019-05-10T13:53:36.709Z,8.20
2019-05-10T13:56:06.246Z,8.87
2019-05-10T13:58:36.426Z,9.33
2019-05-10T14:01:06.494Z,8.13
2019-05-10T14:03:44.434Z,9.90
2019-05-10T14:06:08.595Z,8.23
2019-05-10T14:08:42.789Z,7.50
2019-05-10T14:11:09.557Z,8.83
2019-05-10T14:13:41.346Z,9.27
2019-05-10T14:16:18.238Z,9.23
2019-05-10T14:18:41.677Z,7.10
2019-05-10T14:21:11.239Z,6.67
2019-05-10T14:23:40.866Z,6.80
2019-05-10T14:26:16.039Z,6.30
2019-05-10T14:28:42.046Z,6.20
2019-05-10T14:31:11.656Z,7.30
2019-05-10T14:33:41.227Z,9.27
2019-05-10T14:36:10.788Z,6.40
2019-05-10T14:38:40.740Z,6.80
2019-05-10T14:41:13.273Z,8.07
2019-05-10T14:43:41.555Z,8.10
2019-05-10T14:46:13.715Z,6.87
2019-05-10T14:48:42.437Z,8.03
2019-05-10T14:51:13.969Z,7.50
2019-05-10T14:53:43.624Z,8.00
2019-05-10T14:56:14.153Z,9.77
2019-05-10T14:58:44.569Z,7.43
2019-05-10T15:01:14.159Z,6.87
2019-05-10T15:03:46.071Z,10.30
2019-05-10T15:06:14.966Z,7.40
2019-05-10T15:08:44.584Z,6.70
2019-05-10T15:11:14.271Z,6.70
2019-05-10T15:13:43.812Z,6.27
2019-05-10T15:16:26.190Z,6.87
2019-05-10T15:18:44.935Z,7.23
2019-05-10T15:21:14.460Z,7.30
2019-05-10T15:23:44.012Z,7.13
2019-05-10T15:26:14.034Z,6.20
2019-05-10T15:28:43.942Z,6.90
2019-05-10T15:31:13.517Z,6.07
2019-05-10T15:33:43.131Z,6.43
2019-05-10T15:36:12.735Z,6.03
2019-05-10T15:38:49.778Z,5.70
2019-05-10T15:41:16.905Z,2.80
2019-05-10T15:43:48.958Z,3.30
2019-05-10T15:46:16.293Z,4.83
2019-05-10T15:48:46.134Z,3.23
2019-05-10T15:51:16.950Z,4.37
2019-05-10T15:53:47.135Z,4.23
2019-05-10T15:56:17.156Z,5.97
2019-05-10T15:58:46.789Z,5.40
2019-05-10T16:01:25.762Z,5.70
2019-05-10T16:03:47.807Z,3.40
2019-05-10T16:06:17.501Z,3.23
2019-05-10T16:08:47.049Z,3.23
2019-05-10T16:11:18.604Z,4.37
2019-05-10T16:13:48.959Z,6.53
2019-05-10T16:16:18.577Z,5.57
2019-05-10T16:18:48.164Z,4.77
2019-05-10T16:21:17.817Z,6.83
2019-05-10T16:23:48.447Z,7.20
2019-05-10T16:26:22.912Z,4.20
2019-05-10T16:28:53.078Z,3.93
2019-05-10T16:31:20.932Z,3.93
2019-05-10T16:33:53.398Z,3.70
2019-05-10T16:36:23.003Z,4.63
2019-05-10T16:38:53.155Z,4.73
2019-05-10T16:41:23.017Z,4.77
2019-05-10T16:43:57.771Z,3.70
2019-05-10T16:46:23.830Z,2.80
2019-05-10T16:48:53.437Z,3.07
2019-05-10T16:51:22.987Z,3.10
2019-05-10T16:53:52.541Z,4.80
2019-05-10T16:56:22.125Z,3.57
2019-05-10T16:58:54.818Z,3.53
2019-05-10T17:01:27.775Z,3.70
2019-05-10T17:03:59.889Z,3.47
2019-05-10T17:06:25.536Z,4.10
2019-05-10T17:08:55.124Z,2.90
2019-05-10T17:11:24.733Z,3.87
2019-05-10T17:13:55.652Z,3.27
2019-05-10T17:16:25.350Z,4.43
2019-05-10T17:18:55.749Z,4.57
2019-05-10T17:21:26.291Z,5.00
2019-05-10T17:23:55.842Z,4.17
2019-05-10T17:26:25.408Z,4.60
2019-05-10T17:28:55.135Z,4.83
2019-05-10T17:31:24.721Z,4.87
2019-05-10T17:33:54.343Z,7.30
2019-05-10T17:36:23.950Z,4.63
2019-05-10T17:38:55.524Z,4.50
2019-05-10T17:41:26.965Z,6.50
2019-05-10T17:43:56.193Z,5.13
2019-05-10T17:46:25.753Z,4.87
2019-05-10T17:48:55.329Z,4.93
2019-05-10T17:51:24.939Z,7.93
2019-05-10T17:54:00.930Z,4.17
2019-05-10T17:56:25.889Z,3.57
2019-05-10T17:58:55.906Z,3.83
2019-05-10T18:01:25.476Z,4.33
2019-05-10T18:03:55.010Z,4.03
2019-05-10T18:06:24.713Z,4.07
2019-05-10T18:08:54.353Z,4.00
2019-05-10T18:11:24.092Z,4.30
2019-05-10T18:13:53.630Z,4.47
2019-05-10T18:16:23.473Z,3.97
2019-05-10T18:18:53.072Z,3.60
2019-05-10T18:21:24.222Z,4.77
2019-05-10T18:23:58.195Z,4.13
2019-05-10T18:26:25.275Z,5.40
2019-05-10T18:28:55.793Z,4.07
2019-05-10T18:31:25.379Z,4.83
2019-05-10T18:33:55.956Z,4.37
2019-05-10T18:36:49.981Z,4.30
2019-05-10T18:38:58.012Z,3.77
2019-05-10T18:41:27.579Z,8.57
2019-05-10T18:43:57.199Z,8.43
2019-05-10T18:46:26.760Z,5.43
2019-05-10T18:48:56.381Z,4.37
2019-05-10T18:51:26.502Z,4.97
2019-05-10T18:53:56.213Z,5.50
2019-05-10T18:56:31.325Z,4.30
2019-05-10T18:59:06.891Z,4.07
2019-05-10T19:01:32.752Z,4.87
2019-05-10T19:03:59.791Z,4.63
2019-05-10T19:06:31.338Z,3.83
2019-05-10T19:09:01.873Z,3.67
2019-05-10T19:11:33.225Z,5.67
2019-05-10T19:14:04.930Z,4.50
2019-05-10T19:16:34.702Z,4.47
2019-05-10T19:19:04.469Z,4.27
2019-05-10T19:21:37.476Z,5.03
2019-05-10T19:24:05.254Z,5.33
2019-05-10T19:26:34.820Z,5.37
2019-05-10T19:29:06.770Z,6.00
2019-05-10T19:31:38.010Z,6.50
2019-05-10T19:34:09.092Z,5.83
2019-05-10T19:36:38.345Z,6.07
2019-05-10T19:39:08.550Z,5.33
2019-05-10T19:41:38.167Z,6.13
2019-05-10T19:44:07.782Z,7.97
2019-05-10T19:46:39.828Z,5.60
2019-05-10T19:49:13.404Z,5.73
2019-05-10T19:51:42.348Z,6.57
2019-05-10T19:54:13.639Z,8.43
2019-05-10T19:56:42.475Z,5.20
2019-05-10T19:59:13.471Z,5.10
2019-05-10T20:01:45.417Z,5.03
2019-05-10T20:04:14.914Z,6.60
2019-05-10T20:06:44.498Z,5.90
2019-05-10T20:09:14.070Z,6.30
2019-05-10T20:11:43.623Z,7.13
2019-05-10T20:14:13.439Z,6.90
2019-05-10T20:16:51.998Z,6.53
2019-05-10T20:19:14.357Z,7.67
2019-05-10T20:21:44.038Z,6.00
2019-05-10T20:24:13.748Z,7.37
2019-05-10T20:26:43.776Z,8.03
2019-05-10T20:29:13.398Z,7.50
2019-05-10T20:31:43.251Z,7.70
2019-05-10T20:34:13.018Z,7.73
2019-05-10T20:36:42.691Z,10.53
2019-05-10T20:39:12.244Z,12.60
2019-05-10T20:41:41.812Z,9.90
2019-05-10T20:44:11.398Z,8.33
2019-05-10T20:46:41.024Z,8.17
2019-05-10T20:49:10.594Z,9.20
2019-05-10T20:51:40.239Z,9.17
2019-05-10T20:54:09.822Z,9.30
2019-05-10T20:56:39.488Z,10.50
2019-05-10T20:59:09.102Z,10.10
2019-05-10T21:01:38.826Z,8.37
2019-05-10T21:04:08.489Z,9.00
2019-05-10T21:06:38.128Z,9.30
2019-05-10T21:09:08.030Z,10.40
2019-05-10T21:11:37.559Z,10.30
2019-05-10T21:14:07.110Z,9.37
2019-05-10T21:16:37.819Z,10.40
2019-05-10T21:19:10.763Z,10.07
2019-05-10T21:21:45.478Z,10.97
2019-05-10T21:24:18.574Z,12.20
2019-05-10T21:26:48.151Z,10.80
2019-05-10T21:29:17.761Z,10.70
2019-05-10T21:31:47.339Z,11.57
2019-05-10T21:34:16.892Z,11.97
2019-05-10T21:36:46.438Z,12.30
2019-05-10T21:39:16.117Z,11.57
2019-05-10T21:41:45.850Z,11.70
2019-05-10T21:44:15.396Z,12.07
2019-05-10T21:46:45.948Z,12.33
2019-05-10T21:49:15.646Z,11.80
2019-05-10T21:51:45.268Z,11.83
2019-05-10T21:54:14.859Z,12.87
2019-05-10T21:56:44.539Z,11.80
2019-05-10T21:59:14.090Z,12.17
2019-05-10T22:01:43.645Z,11.97
2019-05-10T22:04:13.228Z,12.60
2019-05-10T22:06:42.875Z,13.23
2019-05-10T22:09:12.504Z,12.30
2019-05-10T22:11:42.075Z,13.40
2019-05-10T22:14:11.629Z,13.43
2019-05-10T22:16:41.235Z,14.00
2019-05-10T22:19:10.968Z,13.40
2019-05-10T22:21:40.519Z,13.33
2019-05-10T22:24:10.106Z,13.10
2019-05-10T22:26:39.711Z,12.97
2019-05-10T22:29:09.255Z,13.37
2019-05-10T22:31:38.841Z,12.83
2019-05-10T22:34:08.399Z,12.70
2019-05-10T22:36:37.957Z,14.77
2019-05-10T22:39:08.011Z,14.70
2019-05-10T22:41:37.716Z,12.60
2019-05-10T22:44:07.268Z,13.17
2019-05-10T22:46:36.917Z,13.37
2019-05-10T22:49:06.483Z,13.13
2019-05-10T22:51:36.127Z,12.07
2019-05-10T22:54:05.868Z,14.27
2019-05-10T22:56:35.477Z,14.23
2019-05-10T22:59:05.436Z,13.50
2019-05-10T23:01:35.329Z,14.30
2019-05-10T23:04:04.914Z,12.80
2019-05-10T23:06:34.719Z,13.43
2019-05-10T23:09:22.187Z,14.30
2019-05-10T23:11:38.366Z,13.77
2019-05-10T23:14:07.944Z,14.63
2019-05-10T23:16:37.509Z,14.60
2019-05-10T23:19:07.114Z,14.50
2019-05-10T23:21:36.754Z,14.03
2019-05-10T23:24:10.914Z,13.30
2019-05-10T23:26:40.478Z,13.93
2019-05-10T23:29:10.058Z,13.73
2019-05-10T23:31:39.789Z,13.30
2019-05-10T23:34:09.346Z,12.37
2019-05-10T23:36:38.914Z,11.00
2019-05-10T23:39:08.661Z,11.57
2019-05-10T23:41:38.215Z,12.73
2019-05-10T23:44:08.055Z,11.50
2019-05-10T23:46:37.595Z,10.90
2019-05-10T23:49:07.153Z,10.40
2019-05-10T23:51:36.685Z,11.93
2019-05-10T23:54:06.236Z,11.07
2019-05-10T23:56:35.911Z,11.60
2019-05-10T23:59:05.522Z,10.83
